KSPI/SPI METAR and TAF weather

Enter ICAO airport designator
Station Type Date Time Source
KSPI METAR 2019/02/21 15:52 UTC NOAA

KSPI 211552Z 33008KT 9SM CLR 02/M06 A3025 RMK AO2 SLP248 T00171056


Station Type Date Time Source
KSPI Decoded METAR 2019/02/21 15:52 UTC NOAA

ABRAHAM LINCOLN CAPITAL AIRPORT , IL, United States (KSPI) 39-51N 89-41W 181M
Feb 21, 2019 - 10:52 AM EST / 2019.02.21 1552 UTC
Wind: from the NNW (330 degrees) at 9 MPH (8 KT):0
Visibility: 9 mile(s):0
Sky conditions: clear
Temperature: 35.1 F (1.7 C)
Dew Point: 21.9 F (-5.6 C)
Relative Humidity: 58%
Pressure (altimeter): 30.25 in. Hg (1024 hPa)
ob: KSPI 211552Z 33008KT 9SM CLR 02/M06 A3025 RMK AO2 SLP248 T00171056
cycle: 16

Station Type Date Time Source
KSPI TAF 2019/02/21 12:24 UTC NOAA

TAF KSPI 211122Z 2112/2212 27007KT P6SM BKN150
FM211800 33006KT P6SM SCT150
FM212200 VRB04KT P6SM BKN150
FM220600 05005KT P6SM SCT150


Example: see airport list